Time;durP1;ratioP1;P1;durP2;ratioP2;P2;SDS_P1;SDS_P2;PMS_P1;PMS_P2;Temp;Humidity;BMP_temperature;BMP_pressure;BME280_temperature;BME280_humidity;BME280_pressure;Samples;Min_cycle;Max_cycle;Signal;HPM_P1;HPM_P2
2023/07/03 00:00:26;;;;;;;;;;;;;;;22.53;35.47;100815.69;5062982;28;19932;-78
2023/07/03 00:02:52;;;;;;;;;;;;;;;22.51;35.52;100820.69;5063349;28;19921;-78
2023/07/03 00:05:18;;;;;;;;;;;;;;;22.50;35.59;100817.16;5064379;28;20153;-78
2023/07/03 00:07:46;;;;;;;;;;;;;;;22.52;35.63;100820.34;5062016;28;20285;-78
2023/07/03 00:10:12;;;;;;;;;;;;;;;22.49;36.07;100820.22;5060455;28;20046;-78
2023/07/03 00:12:37;;;;;;;;;;;;;;;22.41;35.91;100815.56;5062764;28;19924;-78
2023/07/03 00:15:03;;;;;;;;;;;;;;;22.40;35.89;100809.31;5063009;28;19986;-78
2023/07/03 00:17:28;;;;;;;;;;;;;;;22.36;35.63;100805.63;5060933;28;19916;-78
2023/07/03 00:19:53;;;;;;;;;;;;;;;22.31;35.69;100812.06;5056278;28;19921;-78
2023/07/03 00:22:20;;;;;;;;;;;;;;;22.31;35.79;100812.06;5069992;28;19924;-78
2023/07/03 00:24:46;;;;;;;;;;;;;;;22.33;35.73;100809.00;5053049;28;19967;-78
2023/07/03 00:27:11;;;;;;;;;;;;;;;22.32;36.00;100804.69;5059263;28;20388;-78
2023/07/03 00:29:36;;;;;;;;;;;;;;;22.26;36.16;100801.34;5057320;28;19922;-78
2023/07/03 00:32:02;;;;;;;;;;;;;;;22.21;36.16;100800.69;5058017;28;19925;-78
2023/07/03 00:34:27;;;;;;;;;;;;;;;22.18;35.91;100807.59;5056444;28;19916;-78
2023/07/03 00:36:53;;;;;;;;;;;;;;;22.11;36.26;100806.50;5055426;28;19920;-78
2023/07/03 00:39:19;;;;;;;;;;;;;;;22.06;36.36;100815.63;5057081;28;19920;-78
2023/07/03 00:41:44;;;;;;;;;;;;;;;21.98;36.29;100803.59;5057065;28;19931;-78
2023/07/03 00:44:11;;;;;;;;;;;;;;;21.95;36.34;100804.25;5055513;28;19924;-78
2023/07/03 00:46:37;;;;;;;;;;;;;;;21.95;36.52;100809.69;5058238;28;19930;-78
2023/07/03 00:49:04;;;;;;;;;;;;;;;21.92;36.47;100802.16;5053701;28;19943;-78
2023/07/03 00:51:30;;;;;;;;;;;;;;;21.94;36.38;100807.31;5053809;28;19921;-78
2023/07/03 00:53:55;;;;;;;;;;;;;;;21.96;36.26;100808.56;5053209;28;19920;-78
2023/07/03 00:56:20;;;;;;;;;;;;;;;21.94;36.19;100810.81;5054059;28;19917;-78
2023/07/03 00:58:45;;;;;;;;;;;;;;;21.94;36.26;100810.81;5055442;28;20439;-78
2023/07/03 01:01:15;;;;;;;;;;;;;;;21.91;36.27;100805.22;5054614;28;19924;-78
2023/07/03 01:03:42;;;;;;;;;;;;;;;21.87;36.39;100810.50;5056575;28;19967;-78
2023/07/03 01:06:10;;;;;;;;;;;;;;;21.86;36.49;100811.63;5052707;28;19924;-78
2023/07/03 01:08:37;;;;;;;;;;;;;;;21.85;36.50;100810.03;5053357;28;20040;-78
2023/07/03 01:11:02;;;;;;;;;;;;;;;21.84;36.47;100807.63;5055285;28;19916;-78
2023/07/03 01:13:29;;;;;;;;;;;;;;;21.84;36.46;100808.41;5054096;28;20027;-78
2023/07/03 01:15:56;;;;;;;;;;;;;;;21.82;36.67;100805.22;5051655;28;20368;-78
2023/07/03 01:18:22;;;;;;;;;;;;;;;21.79;36.97;100811.31;5056399;28;19931;-78
2023/07/03 01:20:54;;;;;;;;;;;;;;;21.75;37.05;100799.44;5053342;28;20437;-78
2023/07/03 01:23:26;;;;;;;;;;;;;;;21.74;37.17;100803.31;5055796;28;19924;-78
2023/07/03 01:25:53;;;;;;;;;;;;;;;21.71;37.21;100798.47;5055852;28;19925;-78
2023/07/03 01:28:20;;;;;;;;;;;;;;;21.68;37.44;100799.13;5054611;28;19924;-78
2023/07/03 01:30:46;;;;;;;;;;;;;;;21.64;37.27;100800.88;5058763;28;20019;-78
2023/07/03 01:33:14;;;;;;;;;;;;;;;21.59;37.30;100795.59;5053974;28;20406;-78
2023/07/03 01:35:40;;;;;;;;;;;;;;;21.57;37.20;100781.50;5057562;28;19962;-78
2023/07/03 01:38:06;;;;;;;;;;;;;;;21.54;37.17;100793.00;5054625;28;19924;-78
2023/07/03 01:40:32;;;;;;;;;;;;;;;21.50;37.29;100792.84;5055315;28;19986;-78
2023/07/03 01:42:58;;;;;;;;;;;;;;;21.44;37.27;100794.16;5057014;28;19917;-78
2023/07/03 01:45:23;;;;;;;;;;;;;;;21.37;37.35;100794.63;5054193;28;20525;-78
2023/07/03 01:47:48;;;;;;;;;;;;;;;21.31;37.70;100795.88;5056950;28;20031;-78
2023/07/03 01:50:16;;;;;;;;;;;;;;;21.27;37.67;100788.69;5055421;28;19956;-78
2023/07/03 01:52:46;;;;;;;;;;;;;;;21.24;37.55;100792.84;5057779;28;19920;-78
2023/07/03 01:55:20;;;;;;;;;;;;;;;21.22;37.56;100791.53;5055483;28;19916;-78
2023/07/03 01:57:45;;;;;;;;;;;;;;;21.21;37.41;100787.22;5055033;28;19924;-78
2023/07/03 02:00:14;;;;;;;;;;;;;;;21.18;37.48;100780.44;5057564;28;20014;-78
2023/07/03 02:02:42;;;;;;;;;;;;;;;21.12;37.82;100774.34;5055461;28;19994;-78
2023/07/03 02:05:10;;;;;;;;;;;;;;;21.03;38.04;100772.75;5057737;28;19924;-78
2023/07/03 02:07:37;;;;;;;;;;;;;;;20.95;38.06;100773.50;5056863;28;20331;-78
2023/07/03 02:10:03;;;;;;;;;;;;;;;20.86;38.26;100780.88;5058371;28;19921;-77
2023/07/03 02:12:28;;;;;;;;;;;;;;;20.84;38.23;100780.41;5060330;28;20414;-78
2023/07/03 02:14:55;;;;;;;;;;;;;;;20.76;39.13;100779.22;5056775;28;19916;-78
2023/07/03 02:17:20;;;;;;;;;;;;;;;20.71;38.34;100782.91;5057061;28;19936;-78
2023/07/03 02:19:45;;;;;;;;;;;;;;;20.69;39.09;100770.72;5055895;28;19963;-78
2023/07/03 02:22:11;;;;;;;;;;;;;;;20.71;38.38;100776.66;5055532;28;20015;-78
2023/07/03 02:24:36;;;;;;;;;;;;;;;20.70;38.55;100785.94;5047885;28;20506;-78
2023/07/03 02:27:01;;;;;;;;;;;;;;;20.68;38.98;100783.53;5051670;28;20023;-78
2023/07/03 02:29:27;;;;;;;;;;;;;;;20.70;38.50;100784.03;5051789;28;19928;-78
2023/07/03 02:31:52;;;;;;;;;;;;;;;20.73;38.64;100780.66;5051854;28;20301;-78
2023/07/03 02:34:17;;;;;;;;;;;;;;;20.73;38.40;100780.66;5049677;28;20372;-78
2023/07/03 02:36:46;;;;;;;;;;;;;;;20.76;38.41;100784.69;5052054;28;20149;-78
2023/07/03 02:39:11;;;;;;;;;;;;;;;20.79;38.54;100787.56;5054231;28;19921;-78
2023/07/03 02:41:37;;;;;;;;;;;;;;;20.83;38.11;100784.22;5054691;28;19939;-78
2023/07/03 02:44:02;;;;;;;;;;;;;;;20.87;38.39;100783.28;5052300;28;20034;-78
2023/07/03 02:46:27;;;;;;;;;;;;;;;20.88;38.31;100786.81;5057651;28;20147;-78
2023/07/03 02:48:52;;;;;;;;;;;;;;;20.93;38.07;100782.00;5052148;28;19916;-78
2023/07/03 02:51:18;;;;;;;;;;;;;;;20.97;38.03;100779.44;5055632;28;19988;-78
2023/07/03 02:53:43;;;;;;;;;;;;;;;20.98;37.96;100781.06;5058472;28;19920;-78
2023/07/03 02:56:09;;;;;;;;;;;;;;;21.01;37.85;100773.06;5053987;28;19982;-78
2023/07/03 02:58:34;;;;;;;;;;;;;;;20.99;38.02;100766.31;5052605;28;20469;-78
2023/07/03 03:01:01;;;;;;;;;;;;;;;21.03;37.88;100767.31;5054618;28;19944;-78
2023/07/03 03:03:26;;;;;;;;;;;;;;;21.06;37.70;100763.94;5054393;28;19931;-77
2023/07/03 03:05:52;;;;;;;;;;;;;;;21.05;38.12;100762.34;5055175;28;19920;-78
2023/07/03 03:08:18;;;;;;;;;;;;;;;21.06;37.91;100761.22;5056000;28;19973;-78
2023/07/03 03:10:43;;;;;;;;;;;;;;;21.10;37.70;100764.91;5057968;28;19960;-78
2023/07/03 03:13:08;;;;;;;;;;;;;;;21.07;37.97;100763.63;5054445;28;19921;-78
2023/07/03 03:15:34;;;;;;;;;;;;;;;21.06;37.80;100766.66;5049660;28;20001;-78
2023/07/03 03:18:00;;;;;;;;;;;;;;;21.09;38.05;100757.84;5052643;28;19926;-78
2023/07/03 03:20:25;;;;;;;;;;;;;;;21.15;37.89;100762.00;5049074;28;20322;-78
2023/07/03 03:22:51;;;;;;;;;;;;;;;21.18;37.90;100755.13;5054790;28;19916;-78
2023/07/03 03:25:16;;;;;;;;;;;;;;;21.17;37.79;100750.78;5057877;28;19917;-78
2023/07/03 03:27:42;;;;;;;;;;;;;;;21.20;37.76;100756.44;5055209;28;20221;-78
2023/07/03 03:30:08;;;;;;;;;;;;;;;21.25;37.77;100750.84;5054174;28;19959;-78
2023/07/03 03:32:33;;;;;;;;;;;;;;;21.32;37.61;100759.34;5054322;28;20300;-78
2023/07/03 03:34:58;;;;;;;;;;;;;;;21.35;37.64;100758.69;5055623;28;20055;-78
2023/07/03 03:37:24;;;;;;;;;;;;;;;21.39;37.66;100754.22;5057784;28;20003;-78
2023/07/03 03:39:49;;;;;;;;;;;;;;;21.40;37.68;100766.75;5057535;28;20419;-78
2023/07/03 03:42:14;;;;;;;;;;;;;;;21.41;37.63;100762.88;5054529;28;19932;-78
2023/07/03 03:44:40;;;;;;;;;;;;;;;21.38;37.89;100763.53;5055760;28;20274;-78
2023/07/03 03:47:05;;;;;;;;;;;;;;;21.38;37.81;100762.72;5051450;28;19932;-78
2023/07/03 03:49:31;;;;;;;;;;;;;;;21.36;37.95;100765.78;5051921;28;19924;-78
2023/07/03 03:51:56;;;;;;;;;;;;;;;21.36;37.95;100760.31;5055860;28;20057;-78
2023/07/03 03:54:21;;;;;;;;;;;;;;;21.38;38.05;100763.53;5055114;28;19932;-78
2023/07/03 03:56:47;;;;;;;;;;;;;;;21.36;38.48;100757.59;5058287;28;19975;-78
2023/07/03 03:59:12;;;;;;;;;;;;;;;21.35;38.53;100758.69;5053787;28;19975;-78
2023/07/03 04:01:38;;;;;;;;;;;;;;;21.33;38.21;100763.66;5056232;28;19927;-78
2023/07/03 04:04:03;;;;;;;;;;;;;;;21.29;38.28;100754.53;5053189;28;20004;-78
2023/07/03 04:06:29;;;;;;;;;;;;;;;21.30;38.59;100753.41;5051903;28;20003;-78
2023/07/03 04:08:58;;;;;;;;;;;;;;;21.28;38.61;100757.59;5055942;28;19923;-78
2023/07/03 04:11:24;;;;;;;;;;;;;;;21.24;38.62;100759.31;5053754;28;19956;-78
2023/07/03 04:13:49;;;;;;;;;;;;;;;21.21;38.54;100747.13;5048885;28;19967;-78
2023/07/03 04:16:14;;;;;;;;;;;;;;;21.22;38.45;100759.63;5052450;28;19916;-78
2023/07/03 04:18:40;;;;;;;;;;;;;;;21.21;38.76;100752.59;5051824;28;20400;-78
2023/07/03 04:21:06;;;;;;;;;;;;;;;21.21;38.63;100758.03;5054965;28;19916;-78
2023/07/03 04:23:31;;;;;;;;;;;;;;;21.18;38.48;100764.09;5049583;28;19977;-78
2023/07/03 04:25:57;;;;;;;;;;;;;;;21.18;38.85;100761.38;5058528;28;20380;-78
2023/07/03 04:28:23;;;;;;;;;;;;;;;21.24;38.67;100754.69;5056780;28;20451;-78
2023/07/03 04:30:48;;;;;;;;;;;;;;;21.27;38.75;100755.97;5059591;28;19924;-78
2023/07/03 04:33:14;;;;;;;;;;;;;;;21.24;38.61;100754.69;5064350;28;20388;-78
2023/07/03 04:35:39;;;;;;;;;;;;;;;21.27;38.50;100762.22;5059531;28;20000;-78
2023/07/03 04:38:05;;;;;;;;;;;;;;;21.26;38.58;100757.09;5054455;28;19916;-78
2023/07/03 04:40:30;;;;;;;;;;;;;;;21.29;38.52;100754.53;5057314;28;20062;-78
2023/07/03 04:42:55;;;;;;;;;;;;;;;21.34;38.46;100757.09;5049231;28;19972;-78
2023/07/03 04:45:24;;;;;;;;;;;;;;;21.38;38.38;100757.28;5053825;28;19923;-78
2023/07/03 04:47:50;;;;;;;;;;;;;;;21.39;38.45;100759.69;5060506;28;19948;-78
2023/07/03 04:50:16;;;;;;;;;;;;;;;21.41;38.45;100757.44;5051738;28;19917;-77
2023/07/03 04:52:46;;;;;;;;;;;;;;;21.43;38.52;100754.38;5062517;28;19921;-77
2023/07/03 04:55:12;;;;;;;;;;;;;;;21.47;38.58;100760.78;5062595;28;19916;-77
2023/07/03 04:57:42;;;;;;;;;;;;;;;21.51;38.62;100764.47;5055378;28;20015;-77
2023/07/03 05:00:15;;;;;;;;;;;;;;;21.52;38.72;100762.56;5057021;28;19921;-78
2023/07/03 05:02:43;;;;;;;;;;;;;;;21.50;38.89;100762.06;5058469;28;19971;-77
2023/07/03 05:05:10;;;;;;;;;;;;;;;21.55;38.68;100761.94;5059093;28;19959;-77
2023/07/03 05:07:36;;;;;;;;;;;;;;;21.59;38.34;100762.88;5059989;28;19985;-77
2023/07/03 05:10:01;;;;;;;;;;;;;;;21.64;38.48;100771.69;5058928;28;20361;-77
2023/07/03 05:12:27;;;;;;;;;;;;;;;21.72;38.43;100761.91;5058335;28;19921;-77
2023/07/03 05:14:52;;;;;;;;;;;;;;;21.77;38.20;100760.94;5058888;28;19955;-77
2023/07/03 05:17:17;;;;;;;;;;;;;;;21.80;38.24;100763.81;5057251;28;20070;-77
2023/07/03 05:19:42;;;;;;;;;;;;;;;21.87;38.56;100758.66;5059598;28;20300;-77
2023/07/03 05:22:08;;;;;;;;;;;;;;;21.93;38.17;100760.13;5050753;28;20369;-78
2023/07/03 05:24:34;;;;;;;;;;;;;;;21.95;38.31;100766.06;5061480;28;19921;-77
2023/07/03 05:26:59;;;;;;;;;;;;;;;21.95;38.49;100766.06;5059140;28;19917;-77
2023/07/03 05:29:24;;;;;;;;;;;;;;;22.02;38.47;100766.34;5056928;28;20447;-77
2023/07/03 05:31:50;;;;;;;;;;;;;;;22.09;38.43;100762.38;5053823;28;19916;-77
2023/07/03 05:34:15;;;;;;;;;;;;;;;22.13;38.29;100761.38;5059738;28;19917;-77
2023/07/03 05:36:41;;;;;;;;;;;;;;;22.20;38.45;100758.94;5050695;28;19936;-77
2023/07/03 05:39:07;;;;;;;;;;;;;;;22.27;38.43;100767.47;5058187;28;19923;-77
2023/07/03 05:41:32;;;;;;;;;;;;;;;22.30;38.32;100760.53;5056580;28;19930;-77
2023/07/03 05:43:57;;;;;;;;;;;;;;;22.36;38.41;100767.41;5057516;28;19916;-77
2023/07/03 05:46:23;;;;;;;;;;;;;;;22.41;38.29;100769.97;5057624;28;19943;-77
2023/07/03 05:48:49;;;;;;;;;;;;;;;22.47;38.16;100757.75;5054696;28;20140;-78
2023/07/03 05:51:14;;;;;;;;;;;;;;;22.53;38.35;100758.34;5057363;28;19952;-79
2023/07/03 05:53:39;;;;;;;;;;;;;;;22.59;38.24;100766.03;5054702;28;20006;-79
2023/07/03 05:56:05;;;;;;;;;;;;;;;22.66;38.28;100764.72;5057686;28;20115;-78
2023/07/03 05:58:30;;;;;;;;;;;;;;;22.72;38.06;100764.22;5052028;28;19933;-78
2023/07/03 06:00:57;;;;;;;;;;;;;;;22.76;38.29;100762.41;5059300;28;19927;-78
2023/07/03 06:03:24;;;;;;;;;;;;;;;22.84;38.19;100764.34;5057604;28;19928;-79
2023/07/03 06:05:49;;;;;;;;;;;;;;;22.89;38.61;100766.09;5058774;28;19917;-78
2023/07/03 06:08:15;;;;;;;;;;;;;;;22.95;38.28;100759.28;5056490;28;20038;-79
2023/07/03 06:10:40;;;;;;;;;;;;;;;23.02;38.24;100775.19;5056735;28;19920;-79
2023/07/03 06:13:05;;;;;;;;;;;;;;;23.09;38.23;100762.56;5058393;28;20027;-78
2023/07/03 06:15:34;;;;;;;;;;;;;;;23.13;38.35;100757.25;5060917;28;20127;-79
2023/07/03 06:18:01;;;;;;;;;;;;;;;23.11;38.21;100762.25;5057104;28;19960;-79
2023/07/03 06:20:27;;;;;;;;;;;;;;;23.08;38.32;100763.72;5053858;28;20001;-78
2023/07/03 06:22:52;;;;;;;;;;;;;;;23.10;38.25;100758.72;5052390;28;20456;-79
2023/07/03 06:25:17;;;;;;;;;;;;;;;23.14;38.14;100754.16;5053310;28;19928;-78
2023/07/03 06:27:43;;;;;;;;;;;;;;;23.16;38.29;100749.19;5057196;28;20448;-79
2023/07/03 06:30:08;;;;;;;;;;;;;;;23.21;38.10;100751.72;5059820;28;19970;-79
2023/07/03 06:32:33;;;;;;;;;;;;;;;23.13;38.14;100755.31;5055379;28;20819;-79
2023/07/03 06:34:59;;;;;;;;;;;;;;;23.16;38.12;100754.66;5055708;28;19916;-79
2023/07/03 06:37:24;;;;;;;;;;;;;;;23.17;38.13;100753.53;5052934;28;19930;-79
2023/07/03 06:39:49;;;;;;;;;;;;;;;23.20;38.18;100754.78;5055408;28;19920;-79
2023/07/03 06:42:15;;;;;;;;;;;;;;;23.23;37.94;100761.53;5054037;28;19924;-79
2023/07/03 06:44:40;;;;;;;;;;;;;;;23.20;37.95;100758.31;5055101;28;20336;-79
2023/07/03 06:47:06;;;;;;;;;;;;;;;23.20;37.81;100758.31;5055072;28;20011;-78
2023/07/03 06:49:32;;;;;;;;;;;;;;;23.20;38.03;100766.53;5058911;28;21307;-78
2023/07/03 06:51:58;;;;;;;;;;;;;;;23.23;37.98;100765.06;5052564;28;19925;-79
2023/07/03 06:54:23;;;;;;;;;;;;;;;23.29;37.98;100755.53;5053543;28;19924;-78
2023/07/03 06:56:48;;;;;;;;;;;;;;;23.36;37.85;100757.75;5052096;28;19925;-79
2023/07/03 06:59:13;;;;;;;;;;;;;;;23.49;37.67;100762.13;5060080;28;19924;-79
2023/07/03 07:01:39;;;;;;;;;;;;;;;23.57;37.43;100766.75;5060457;28;20011;-79
2023/07/03 07:04:04;;;;;;;;;;;;;;;23.61;37.40;100766.88;5060785;28;19922;-79
2023/07/03 07:06:30;;;;;;;;;;;;;;;23.68;36.93;100759.72;5058624;28;21466;-79
2023/07/03 07:08:56;;;;;;;;;;;;;;;23.75;36.84;100767.41;5058243;28;19920;-80
2023/07/03 07:11:26;;;;;;;;;;;;;;;23.80;36.60;100759.78;5051257;28;19925;-81
2023/07/03 07:13:51;;;;;;;;;;;;;;;23.79;36.77;100760.91;5053861;28;20359;-82
2023/07/03 07:16:18;;;;;;;;;;;;;;;23.86;36.65;100760.34;5053418;28;20171;-81
2023/07/03 07:18:45;;;;;;;;;;;;;;;23.94;36.46;100755.94;5053038;28;20018;-81
2023/07/03 07:21:10;;;;;;;;;;;;;;;24.06;36.63;100764.22;5057772;28;20420;-82
2023/07/03 07:23:36;;;;;;;;;;;;;;;24.22;36.47;100758.84;5057141;28;20012;-82
2023/07/03 07:26:01;;;;;;;;;;;;;;;24.45;36.24;100759.28;5055763;28;20385;-82
2023/07/03 07:28:26;;;;;;;;;;;;;;;24.63;36.10;100760.66;5062636;28;20420;-82
2023/07/03 07:30:51;;;;;;;;;;;;;;;24.81;35.77;100756.53;5053005;28;19916;-82
2023/07/03 07:33:17;;;;;;;;;;;;;;;24.93;35.43;100758.44;5050697;28;19960;-82
2023/07/03 07:35:43;;;;;;;;;;;;;;;24.97;35.08;100749.22;5052030;28;20007;-81
2023/07/03 07:38:09;;;;;;;;;;;;;;;24.97;35.05;100751.97;5055961;28;19916;-82
2023/07/03 07:40:34;;;;;;;;;;;;;;;25.02;34.95;100750.16;5049739;28;20491;-81
2023/07/03 07:43:00;;;;;;;;;;;;;;;25.00;34.57;100756.78;5055503;28;19917;-81
2023/07/03 07:45:25;;;;;;;;;;;;;;;25.09;34.92;100755.84;5050887;28;20004;-80
2023/07/03 07:47:51;;;;;;;;;;;;;;;25.20;35.03;100756.97;5054537;28;20373;-80
2023/07/03 07:50:16;;;;;;;;;;;;;;;25.36;34.82;100748.81;5050629;28;19917;-81
2023/07/03 07:52:41;;;;;;;;;;;;;;;25.47;34.67;100752.66;5052759;28;20011;-82
2023/07/03 07:55:07;;;;;;;;;;;;;;;25.67;34.30;100754.38;5066429;28;19922;-81
2023/07/03 07:57:32;;;;;;;;;;;;;;;25.76;34.03;100749.59;5060648;28;20370;-81
2023/07/03 07:59:57;;;;;;;;;;;;;;;25.80;33.18;100755.97;5067215;28;19960;-82
2023/07/03 08:02:23;;;;;;;;;;;;;;;25.86;33.22;100748.31;5061644;28;20023;-82
2023/07/03 08:04:48;;;;;;;;;;;;;;;25.95;33.58;100748.91;5063404;28;20009;-80
2023/07/03 08:07:13;;;;;;;;;;;;;;;26.08;33.08;100752.41;5064213;28;19951;-81
2023/07/03 08:09:39;;;;;;;;;;;;;;;26.19;32.74;100753.47;5066878;28;19931;-79
2023/07/03 08:12:05;;;;;;;;;;;;;;;26.29;32.83;100754.91;5062794;28;19970;-79
2023/07/03 08:14:30;;;;;;;;;;;;;;;26.32;32.72;100745.94;5059757;28;19920;-79
2023/07/03 08:16:55;;;;;;;;;;;;;;;26.40;32.53;100750.50;5064749;28;19920;-80
2023/07/03 08:19:21;;;;;;;;;;;;;;;26.40;32.38;100747.75;5064343;28;20413;-79
2023/07/03 08:21:46;;;;;;;;;;;;;;;26.36;32.40;100749.59;5069192;28;19917;-80
2023/07/03 08:24:11;;;;;;;;;;;;;;;26.34;31.52;100746.38;5059829;28;19921;-81
2023/07/03 08:26:37;;;;;;;;;;;;;;;26.36;31.63;100752.34;5060468;28;20376;-82
2023/07/03 08:29:02;;;;;;;;;;;;;;;26.37;31.46;100752.00;5061045;28;21512;-79
2023/07/03 08:31:27;;;;;;;;;;;;;;;26.46;31.57;100754.56;5059983;28;19955;-79
2023/07/03 08:33:54;;;;;;;;;;;;;;;26.59;31.65;100755.28;5059151;28;19951;-81
2023/07/03 08:36:20;;;;;;;;;;;;;;;26.71;31.57;100747.72;5064044;28;19967;-80
2023/07/03 08:38:45;;;;;;;;;;;;;;;26.85;31.37;100746.47;5055960;28;20009;-80
2023/07/03 08:41:14;;;;;;;;;;;;;;;26.92;31.14;100750.16;5059595;28;19925;-79
2023/07/03 08:43:41;;;;;;;;;;;;;;;26.97;30.84;100746.34;5061629;28;20029;-83
2023/07/03 08:46:14;;;;;;;;;;;;;;;26.93;30.23;100749.03;5066794;28;19923;-80
2023/07/03 08:48:41;;;;;;;;;;;;;;;26.97;30.01;100738.91;5064395;28;19931;-80
2023/07/03 08:51:09;;;;;;;;;;;;;;;27.05;30.29;100737.91;5064077;28;19970;-79
2023/07/03 08:53:38;;;;;;;;;;;;;;;27.15;29.53;100744.03;5060616;28;20384;-82
2023/07/03 08:56:14;;;;;;;;;;;;;;;27.17;28.87;100736.19;5062578;28;19917;-81
2023/07/03 08:58:39;;;;;;;;;;;;;;;27.19;28.12;100747.63;5061075;28;19920;-81
2023/07/03 09:01:11;;;;;;;;;;;;;;;27.32;28.65;100763.66;5060224;28;20406;-82
2023/07/03 09:03:43;;;;;;;;;;;;;;;27.45;28.54;100758.00;5056259;28;20384;-77
2023/07/03 09:06:14;;;;;;;;;;;;;;;27.53;28.18;100759.75;5057714;28;19920;-79
2023/07/03 09:09:00;;;;;;;;;;;;;;;27.52;28.29;100766.41;5064450;28;19952;-79
2023/07/03 09:11:27;;;;;;;;;;;;;;;27.71;28.10;100766.44;5055901;28;20815;-78
2023/07/03 09:13:54;;;;;;;;;;;;;;;27.84;28.00;100770.63;5062370;28;19927;-80
2023/07/03 09:16:22;;;;;;;;;;;;;;;27.93;27.26;100765.66;5058385;28;20635;-80
2023/07/03 09:18:53;;;;;;;;;;;;;;;28.02;27.93;100764.66;5060782;28;19921;-82
2023/07/03 09:21:20;;;;;;;;;;;;;;;28.01;27.28;100774.88;5058597;28;19967;-78
2023/07/03 09:24:04;;;;;;;;;;;;;;;28.09;27.79;100775.78;5060894;28;19916;-79
2023/07/03 09:26:32;;;;;;;;;;;;;;;28.05;27.29;100780.44;5059788;28;19920;-80
2023/07/03 09:28:58;;;;;;;;;;;;;;;28.00;27.56;100776.00;5063304;28;19927;-80
2023/07/03 09:31:26;;;;;;;;;;;;;;;27.97;27.45;100766.53;5061588;28;19966;-82
2023/07/03 09:33:51;;;;;;;;;;;;;;;28.00;27.71;100762.25;5067191;28;20050;-81
2023/07/03 09:36:23;;;;;;;;;;;;;;;28.14;27.47;100770.75;5058609;28;20089;-80
2023/07/03 09:38:48;;;;;;;;;;;;;;;28.26;27.29;100781.66;5060895;28;19999;-79
2023/07/03 09:41:22;;;;;;;;;;;;;;;28.32;27.13;100789.59;5063672;28;19917;-78
2023/07/03 09:43:47;;;;;;;;;;;;;;;28.29;26.95;100786.41;5060965;28;19967;-80
2023/07/03 09:46:14;;;;;;;;;;;;;;;28.30;27.02;100778.94;5065892;28;19964;-79
2023/07/03 09:48:39;;;;;;;;;;;;;;;28.33;26.46;100769.16;5062444;28;19927;-80
2023/07/03 09:51:17;;;;;;;;;;;;;;;28.43;27.13;100779.56;5057546;28;19921;-81
2023/07/03 09:53:42;;;;;;;;;;;;;;;28.44;26.77;100783.91;5063514;28;19924;-81
2023/07/03 09:56:11;;;;;;;;;;;;;;;28.37;26.66;100792.88;5062377;28;19981;-79
2023/07/03 09:58:43;;;;;;;;;;;;;;;28.28;26.88;100789.53;5055791;28;19923;-79
2023/07/03 10:01:15;;;;;;;;;;;;;;;28.20;27.06;100787.81;5061099;28;19951;-79
2023/07/03 10:03:40;;;;;;;;;;;;;;;28.19;27.04;100787.00;5059302;28;19921;-79
2023/07/03 10:06:14;;;;;;;;;;;;;;;28.24;27.44;100788.66;5054982;28;19936;-79
2023/07/03 10:08:49;;;;;;;;;;;;;;;28.24;27.22;100810.69;5062133;28;20023;-78
2023/07/03 10:11:18;;;;;;;;;;;;;;;28.06;26.14;100804.88;5062412;28;19923;-81
2023/07/03 10:13:46;;;;;;;;;;;;;;;27.78;26.40;100796.84;5049725;28;20025;-81
2023/07/03 10:16:13;;;;;;;;;;;;;;;27.64;27.05;100797.34;5057752;28;20102;-82
2023/07/03 10:18:42;;;;;;;;;;;;;;;27.64;27.22;100811.09;5060931;28;19995;-78
2023/07/03 10:21:10;;;;;;;;;;;;;;;27.57;27.14;100799.13;5066926;28;19920;-80
2023/07/03 10:23:38;;;;;;;;;;;;;;;27.56;27.41;100806.59;5057746;28;20317;-79
2023/07/03 10:26:17;;;;;;;;;;;;;;;27.51;27.48;100811.59;5054154;28;19950;-80
2023/07/03 10:28:52;;;;;;;;;;;;;;;27.49;27.72;100800.16;5056407;28;19965;-78
2023/07/03 10:31:21;;;;;;;;;;;;;;;27.54;27.59;100811.66;5059206;28;19928;-79
2023/07/03 10:33:48;;;;;;;;;;;;;;;27.77;27.43;100800.75;5055402;28;19975;-78
2023/07/03 10:36:18;;;;;;;;;;;;;;;28.03;27.50;100799.28;5059214;28;19924;-79
2023/07/03 10:38:55;;;;;;;;;;;;;;;28.29;27.23;100796.66;5072784;28;19977;-79
2023/07/03 10:41:27;;;;;;;;;;;;;;;28.38;27.05;100799.97;5051184;28;19932;-80
2023/07/03 10:43:54;;;;;;;;;;;;;;;28.28;26.81;100801.34;5054113;28;19921;-81
2023/07/03 10:46:38;;;;;;;;;;;;;;;28.14;26.97;100805.78;5053647;28;19921;-80
2023/07/03 10:49:06;;;;;;;;;;;;;;;28.01;26.87;100813.44;5053831;28;20775;-80
2023/07/03 10:51:43;;;;;;;;;;;;;;;27.99;27.26;100810.22;5050750;28;20023;-80
2023/07/03 10:54:21;;;;;;;;;;;;;;;27.96;27.34;100817.25;5052843;28;20075;-80
2023/07/03 10:56:51;;;;;;;;;;;;;;;27.91;26.94;100828.56;5054423;28;20504;-78
2023/07/03 10:59:32;;;;;;;;;;;;;;;27.84;26.87;100825.69;5054234;28;20424;-80
2023/07/03 11:02:18;;;;;;;;;;;;;;;27.64;26.91;100827.63;5050411;28;19920;-79
2023/07/03 11:04:43;;;;;;;;;;;;;;;27.58;27.45;100825.50;5050656;28;19954;-82
2023/07/03 11:07:09;;;;;;;;;;;;;;;27.65;27.55;100840.25;5060684;28;20407;-81
2023/07/03 11:09:52;;;;;;;;;;;;;;;27.67;27.28;100832.44;5057076;28;19925;-81
2023/07/03 11:12:32;;;;;;;;;;;;;;;27.73;27.41;100837.63;5050438;28;19920;-81
2023/07/03 11:15:27;;;;;;;;;;;;;;;27.68;27.37;100834.03;5056294;28;20385;-81
2023/07/03 11:17:59;;;;;;;;;;;;;;;27.67;27.03;100842.66;4987780;28;19922;-80
2023/07/03 11:20:28;;;;;;;;;;;;;;;27.55;27.28;100848.25;5052716;28;20439;-79
2023/07/03 11:23:14;;;;;;;;;;;;;;;27.53;27.14;100864.31;5054709;28;19982;-80
2023/07/03 11:25:52;;;;;;;;;;;;;;;27.54;27.55;100838.38;5052734;28;19917;-78
2023/07/03 11:28:32;;;;;;;;;;;;;;;27.65;27.17;100839.47;5055337;28;19924;-79
2023/07/03 11:30:59;;;;;;;;;;;;;;;27.62;27.10;100842.88;5053055;28;19931;-78
2023/07/03 11:33:25;;;;;;;;;;;;;;;27.62;26.98;100835.41;5055453;28;19960;-79
2023/07/03 11:35:52;;;;;;;;;;;;;;;27.76;27.27;100839.66;5053399;28;20066;-79
2023/07/03 11:38:19;;;;;;;;;;;;;;;27.97;27.06;100842.84;5052300;28;20043;-78
2023/07/03 11:40:54;;;;;;;;;;;;;;;28.15;26.61;100848.69;5051955;28;19920;-79
2023/07/03 11:43:28;;;;;;;;;;;;;;;28.24;26.60;100847.31;5052139;28;19927;-80
2023/07/03 11:45:56;;;;;;;;;;;;;;;28.29;25.89;100857.25;5050846;28;19924;-82
2023/07/03 11:48:37;;;;;;;;;;;;;;;28.15;26.31;100859.72;5054744;28;19964;-82
2023/07/03 11:51:04;;;;;;;;;;;;;;;28.27;26.40;100851.31;5054412;28;21161;-79
2023/07/03 11:53:35;;;;;;;;;;;;;;;28.40;26.27;100854.72;5049604;28;19943;-79
2023/07/03 11:56:01;;;;;;;;;;;;;;;28.51;25.83;100850.97;5053330;28;19916;-79
2023/07/03 11:58:29;;;;;;;;;;;;;;;28.67;26.13;100852.81;5052920;28;19928;-80
2023/07/03 12:01:13;;;;;;;;;;;;;;;28.85;25.76;100868.47;5053126;28;19943;-79
2023/07/03 12:03:49;;;;;;;;;;;;;;;28.84;24.93;100866.09;5051257;28;20033;-82
2023/07/03 12:06:34;;;;;;;;;;;;;;;28.81;24.77;100861.31;5056803;28;19966;-81
2023/07/03 12:09:21;;;;;;;;;;;;;;;28.77;25.07;100861.28;5050076;28;19916;-80
2023/07/03 12:12:06;;;;;;;;;;;;;;;29.00;25.33;100869.53;5051345;28;19924;-80
2023/07/03 12:14:44;;;;;;;;;;;;;;;29.32;25.34;100863.72;5052739;28;19939;-82
2023/07/03 12:17:27;;;;;;;;;;;;;;;29.71;25.36;100862.31;5056631;28;19924;-81
2023/07/03 12:20:02;;;;;;;;;;;;;;;30.01;24.74;100862.28;5050906;28;19925;-81
2023/07/03 12:22:27;;;;;;;;;;;;;;;30.05;24.39;100863.16;5049104;28;19920;-83
2023/07/03 12:25:22;;;;;;;;;;;;;;;29.97;24.39;100871.69;5053732;28;19977;-81
2023/07/03 12:27:48;;;;;;;;;;;;;;;29.86;24.94;100865.25;5041902;28;19931;-81
2023/07/03 12:30:40;;;;;;;;;;;;;;;29.81;24.87;100866.38;5054589;28;19920;-80
2023/07/03 12:33:06;;;;;;;;;;;;;;;29.77;24.39;100868.28;5050458;28;19931;-79
2023/07/03 12:35:33;;;;;;;;;;;;;;;29.78;24.47;100869.88;5054559;28;20394;-79
2023/07/03 12:38:00;;;;;;;;;;;;;;;29.59;24.06;100862.53;5055533;28;20800;-80